sensor_id;sensor_type;location;lat;lon;timestamp;pressure;altitude;pressure_sealevel;temperature
55038;BMP280;40937;53.594;10.034;2024-02-16T00:00:07;101335.56;;;12.42
55038;BMP280;40937;53.594;10.034;2024-02-16T00:02:41;101337.41;;;12.42
55038;BMP280;40937;53.594;10.034;2024-02-16T00:05:10;101332.59;;;12.39
55038;BMP280;40937;53.594;10.034;2024-02-16T00:07:37;101327.09;;;12.40
55038;BMP280;40937;53.594;10.034;2024-02-16T00:10:06;101322.44;;;12.36
55038;BMP280;40937;53.594;10.034;2024-02-16T00:12:33;101320.97;;;12.40
55038;BMP280;40937;53.594;10.034;2024-02-16T00:15:02;101316.94;;;12.37
55038;BMP280;40937;53.594;10.034;2024-02-16T00:17:29;101314.16;;;12.32
55038;BMP280;40937;53.594;10.034;2024-02-16T00:19:58;101314.16;;;12.32
55038;BMP280;40937;53.594;10.034;2024-02-16T00:22:25;101305.34;;;12.26
55038;BMP280;40937;53.594;10.034;2024-02-16T00:24:53;101299.22;;;12.26
55038;BMP280;40937;53.594;10.034;2024-02-16T00:27:20;101300.81;;;12.27
55038;BMP280;40937;53.594;10.034;2024-02-16T00:29:47;101287.13;;;12.30
55038;BMP280;40937;53.594;10.034;2024-02-16T00:32:14;101286.44;;;12.23
55038;BMP280;40937;53.594;10.034;2024-02-16T00:34:41;101288.28;;;12.22
55038;BMP280;40937;53.594;10.034;2024-02-16T00:37:10;101276.28;;;12.20
55038;BMP280;40937;53.594;10.034;2024-02-16T00:39:38;101285.53;;;12.17
55038;BMP280;40937;53.594;10.034;2024-02-16T00:42:07;101282.06;;;12.17
55038;BMP280;40937;53.594;10.034;2024-02-16T00:44:34;101280.91;;;12.13
55038;BMP280;40937;53.594;10.034;2024-02-16T00:47:01;101268.84;;;12.17
55038;BMP280;40937;53.594;10.034;2024-02-16T00:49:28;101276.19;;;12.15
55038;BMP280;40937;53.594;10.034;2024-02-16T00:51:55;101262.19;;;12.14
55038;BMP280;40937;53.594;10.034;2024-02-16T00:54:24;101259.31;;;12.16
55038;BMP280;40937;53.594;10.034;2024-02-16T00:56:52;101262.53;;;12.18
55038;BMP280;40937;53.594;10.034;2024-02-16T00:59:20;101269.28;;;12.14
55038;BMP280;40937;53.594;10.034;2024-02-16T01:01:48;101278.25;;;12.13
55038;BMP280;40937;53.594;10.034;2024-02-16T01:04:15;101276.66;;;12.12
55038;BMP280;40937;53.594;10.034;2024-02-16T01:06:42;101270.81;;;12.09
55038;BMP280;40937;53.594;10.034;2024-02-16T01:09:09;101262.41;;;12.13
55038;BMP280;40937;53.594;10.034;2024-02-16T01:11:41;101260.00;;;12.11
55038;BMP280;40937;53.594;10.034;2024-02-16T01:14:09;101260.66;;;12.06
55038;BMP280;40937;53.594;10.034;2024-02-16T01:16:36;101255.16;;;12.08
55038;BMP280;40937;53.594;10.034;2024-02-16T01:19:03;101266.53;;;12.08
55038;BMP280;40937;53.594;10.034;2024-02-16T01:21:32;101257.59;;;12.09
55038;BMP280;40937;53.594;10.034;2024-02-16T01:23:59;101270.69;;;12.04
55038;BMP280;40937;53.594;10.034;2024-02-16T01:26:26;101270.69;;;12.04
55038;BMP280;40937;53.594;10.034;2024-02-16T01:28:55;101271.50;;;12.05
55038;BMP280;40937;53.594;10.034;2024-02-16T01:31:23;101266.66;;;12.02
55038;BMP280;40937;53.594;10.034;2024-02-16T01:33:51;101263.22;;;12.01
55038;BMP280;40937;53.594;10.034;2024-02-16T01:36:18;101265.25;;;11.99
55038;BMP280;40937;53.594;10.034;2024-02-16T01:38:46;101251.22;;;11.99
55038;BMP280;40937;53.594;10.034;2024-02-16T01:41:13;101248.84;;;11.97
55038;BMP280;40937;53.594;10.034;2024-02-16T01:43:41;101248.84;;;11.97
55038;BMP280;40937;53.594;10.034;2024-02-16T01:46:09;101254.94;;;11.98
55038;BMP280;40937;53.594;10.034;2024-02-16T01:48:36;101244.78;;;11.95
55038;BMP280;40937;53.594;10.034;2024-02-16T01:51:06;101248.72;;;11.92
55038;BMP280;40937;53.594;10.034;2024-02-16T01:53:34;101244.44;;;11.91
55038;BMP280;40937;53.594;10.034;2024-02-16T01:56:03;101244.13;;;11.87
55038;BMP280;40937;53.594;10.034;2024-02-16T01:58:30;101251.00;;;11.88
55038;BMP280;40937;53.594;10.034;2024-02-16T02:00:58;101240.19;;;11.90
55038;BMP280;40937;53.594;10.034;2024-02-16T02:03:26;101245.50;;;11.90
55038;BMP280;40937;53.594;10.034;2024-02-16T02:05:53;101228.03;;;11.89
55038;BMP280;40937;53.594;10.034;2024-02-16T02:08:21;101225.38;;;11.89
55038;BMP280;40937;53.594;10.034;2024-02-16T02:10:49;101214.66;;;11.84
55038;BMP280;40937;53.594;10.034;2024-02-16T02:13:16;101212.00;;;11.84
55038;BMP280;40937;53.594;10.034;2024-02-16T02:15:45;101210.19;;;11.84
55038;BMP280;40937;53.594;10.034;2024-02-16T02:18:13;101199.88;;;11.83
55038;BMP280;40937;53.594;10.034;2024-02-16T02:20:41;101203.53;;;11.82
55038;BMP280;40937;53.594;10.034;2024-02-16T02:23:10;101194.59;;;11.83
55038;BMP280;40937;53.594;10.034;2024-02-16T02:25:38;101201.91;;;11.81
55038;BMP280;40937;53.594;10.034;2024-02-16T02:28:05;101194.81;;;11.81
55038;BMP280;40937;53.594;10.034;2024-02-16T02:30:34;101195.03;;;11.80
55038;BMP280;40937;53.594;10.034;2024-02-16T02:33:01;101190.66;;;11.74
55038;BMP280;40937;53.594;10.034;2024-02-16T02:35:28;101200.75;;;11.77
55038;BMP280;40937;53.594;10.034;2024-02-16T02:37:55;101189.97;;;11.78
55038;BMP280;40937;53.594;10.034;2024-02-16T02:40:24;101189.13;;;11.78
55038;BMP280;40937;53.594;10.034;2024-02-16T02:42:51;101185.81;;;11.70
55038;BMP280;40937;53.594;10.034;2024-02-16T02:45:19;101183.16;;;11.70
55038;BMP280;40937;53.594;10.034;2024-02-16T02:47:46;101180.09;;;11.74
55038;BMP280;40937;53.594;10.034;2024-02-16T02:50:13;101172.38;;;11.72
55038;BMP280;40937;53.594;10.034;2024-02-16T02:52:41;101176.41;;;11.75
55038;BMP280;40937;53.594;10.034;2024-02-16T02:55:08;101178.25;;;11.74
55038;BMP280;40937;53.594;10.034;2024-02-16T02:57:36;101169.50;;;11.74
55038;BMP280;40937;53.594;10.034;2024-02-16T03:00:05;101164.88;;;11.69
55038;BMP280;40937;53.594;10.034;2024-02-16T03:02:36;101164.53;;;11.65
55038;BMP280;40937;53.594;10.034;2024-02-16T03:05:05;101160.88;;;11.66
55038;BMP280;40937;53.594;10.034;2024-02-16T03:07:33;101165.59;;;11.64
55038;BMP280;40937;53.594;10.034;2024-02-16T03:10:00;101156.63;;;11.65
55038;BMP280;40937;53.594;10.034;2024-02-16T03:12:27;101158.22;;;11.66
55038;BMP280;40937;53.594;10.034;2024-02-16T03:14:56;101150.31;;;11.66
55038;BMP280;40937;53.594;10.034;2024-02-16T03:17:23;101145.56;;;11.68
55038;BMP280;40937;53.594;10.034;2024-02-16T03:19:50;101138.47;;;11.69
55038;BMP280;40937;53.594;10.034;2024-02-16T03:22:17;101138.13;;;11.65
55038;BMP280;40937;53.594;10.034;2024-02-16T03:24:45;101134.66;;;11.65
55038;BMP280;40937;53.594;10.034;2024-02-16T03:27:13;101123.31;;;11.64
55038;BMP280;40937;53.594;10.034;2024-02-16T03:29:40;101124.69;;;11.67
55038;BMP280;40937;53.594;10.034;2024-02-16T03:32:10;101125.72;;;11.66
55038;BMP280;40937;53.594;10.034;2024-02-16T03:34:37;101117.63;;;11.61
55038;BMP280;40937;53.594;10.034;2024-02-16T03:37:04;101118.47;;;11.61
55038;BMP280;40937;53.594;10.034;2024-02-16T03:39:31;101115.25;;;11.59
55038;BMP280;40937;53.594;10.034;2024-02-16T03:41:59;101116.88;;;11.60
55038;BMP280;40937;53.594;10.034;2024-02-16T03:44:26;101112.81;;;11.58
55038;BMP280;40937;53.594;10.034;2024-02-16T03:46:53;101113.09;;;11.56
55038;BMP280;40937;53.594;10.034;2024-02-16T03:49:21;101120.75;;;11.58
55038;BMP280;40937;53.594;10.034;2024-02-16T03:51:49;101121.81;;;11.57
55038;BMP280;40937;53.594;10.034;2024-02-16T03:54:16;101124.22;;;11.58
55038;BMP280;40937;53.594;10.034;2024-02-16T03:56:43;101117.75;;;11.54
55038;BMP280;40937;53.594;10.034;2024-02-16T03:59:11;101124.66;;;11.55
55038;BMP280;40937;53.594;10.034;2024-02-16T04:01:38;101122.03;;;11.55
55038;BMP280;40937;53.594;10.034;2024-02-16T04:04:07;101119.38;;;11.55
55038;BMP280;40937;53.594;10.034;2024-02-16T04:06:36;101121.44;;;11.53
55038;BMP280;40937;53.594;10.034;2024-02-16T04:09:03;101114.69;;;11.57
55038;BMP280;40937;53.594;10.034;2024-02-16T04:11:31;101112.03;;;11.57
55038;BMP280;40937;53.594;10.034;2024-02-16T04:13:59;101105.59;;;11.53
55038;BMP280;40937;53.594;10.034;2024-02-16T04:16:26;101110.88;;;11.53
55038;BMP280;40937;53.594;10.034;2024-02-16T04:18:53;101103.53;;;11.55
55038;BMP280;40937;53.594;10.034;2024-02-16T04:21:21;101107.78;;;11.56
55038;BMP280;40937;53.594;10.034;2024-02-16T04:23:49;101099.88;;;11.56
55038;BMP280;40937;53.594;10.034;2024-02-16T04:26:16;101101.91;;;11.54
55038;BMP280;40937;53.594;10.034;2024-02-16T04:28:43;101096.09;;;11.52
55038;BMP280;40937;53.594;10.034;2024-02-16T04:31:11;101098.25;;;11.55
55038;BMP280;40937;53.594;10.034;2024-02-16T04:33:38;101098.25;;;11.55
55038;BMP280;40937;53.594;10.034;2024-02-16T04:36:06;101103.53;;;11.55
55038;BMP280;40937;53.594;10.034;2024-02-16T04:38:34;101102.75;;;11.55
55038;BMP280;40937;53.594;10.034;2024-02-16T04:41:04;101099.88;;;11.56
55038;BMP280;40937;53.594;10.034;2024-02-16T04:43:31;101099.41;;;11.59
55038;BMP280;40937;53.594;10.034;2024-02-16T04:45:58;101099.88;;;11.56
55038;BMP280;40937;53.594;10.034;2024-02-16T04:48:26;101093.53;;;11.57
55038;BMP280;40937;53.594;10.034;2024-02-16T04:50:54;101103.53;;;11.55
55038;BMP280;40937;53.594;10.034;2024-02-16T04:53:21;101104.09;;;11.57
55038;BMP280;40937;53.594;10.034;2024-02-16T04:55:49;101104.09;;;11.57
55038;BMP280;40937;53.594;10.034;2024-02-16T04:58:17;101092.53;;;11.58
55038;BMP280;40937;53.594;10.034;2024-02-16T05:00:44;101096.88;;;11.64
55038;BMP280;40937;53.594;10.034;2024-02-16T05:03:12;101094.09;;;11.59
55038;BMP280;40937;53.594;10.034;2024-02-16T05:05:39;101091.47;;;11.59
55038;BMP280;40937;53.594;10.034;2024-02-16T05:08:07;101086.19;;;11.59
55038;BMP280;40937;53.594;10.034;2024-02-16T05:10:34;101086.41;;;11.58
55038;BMP280;40937;53.594;10.034;2024-02-16T05:13:01;101085.63;;;11.57
55038;BMP280;40937;53.594;10.034;2024-02-16T05:15:29;101086.06;;;11.54
55038;BMP280;40937;53.594;10.034;2024-02-16T05:17:57;101090.31;;;11.55
55038;BMP280;40937;53.594;10.034;2024-02-16T05:20:24;101083.53;;;11.59
55038;BMP280;40937;53.594;10.034;2024-02-16T05:22:51;101085.47;;;11.64
55038;BMP280;40937;53.594;10.034;2024-02-16T05:25:19;101083.28;;;11.61
55038;BMP280;40937;53.594;10.034;2024-02-16T05:27:46;101081.03;;;11.64
55038;BMP280;40937;53.594;10.034;2024-02-16T05:30:14;101083.53;;;11.59
55038;BMP280;40937;53.594;10.034;2024-02-16T05:32:43;101067.38;;;11.67
55038;BMP280;40937;53.594;10.034;2024-02-16T05:35:10;101066.75;;;11.65
55038;BMP280;40937;53.594;10.034;2024-02-16T05:37:38;101068.25;;;11.61
55038;BMP280;40937;53.594;10.034;2024-02-16T05:40:08;101060.09;;;11.63
55038;BMP280;40937;53.594;10.034;2024-02-16T05:42:46;101063.22;;;11.60
55038;BMP280;40937;53.594;10.034;2024-02-16T05:45:13;101061.94;;;11.62
55038;BMP280;40937;53.594;10.034;2024-02-16T05:47:42;101064.03;;;11.60
55038;BMP280;40937;53.594;10.034;2024-02-16T05:50:11;101066.88;;;11.59
55038;BMP280;40937;53.594;10.034;2024-02-16T05:52:39;101064.47;;;11.57
55038;BMP280;40937;53.594;10.034;2024-02-16T05:55:07;101079.97;;;11.54
55038;BMP280;40937;53.594;10.034;2024-02-16T05:57:35;101074.47;;;11.55
55038;BMP280;40937;53.594;10.034;2024-02-16T06:00:03;101073.44;;;11.56
55038;BMP280;40937;53.594;10.034;2024-02-16T06:02:31;101083.53;;;11.59
55038;BMP280;40937;53.594;10.034;2024-02-16T06:07:40;101085.63;;;11.57
55038;BMP280;40937;53.594;10.034;2024-02-16T06:10:08;101086.41;;;11.58
55038;BMP280;40937;53.594;10.034;2024-02-16T06:12:36;101080.09;;;11.59
55038;BMP280;40937;53.594;10.034;2024-02-16T06:15:04;101071.94;;;11.60
55038;BMP280;40937;53.594;10.034;2024-02-16T06:17:32;101077.47;;;11.59
55038;BMP280;40937;53.594;10.034;2024-02-16T06:19:59;101084.59;;;11.58
55038;BMP280;40937;53.594;10.034;2024-02-16T06:22:26;101077.69;;;11.57
55038;BMP280;40937;53.594;10.034;2024-02-16T06:24:55;101078.25;;;11.59
55038;BMP280;40937;53.594;10.034;2024-02-16T06:27:22;101071.94;;;11.60
55038;BMP280;40937;53.594;10.034;2024-02-16T06:29:49;101064.03;;;11.60
55038;BMP280;40937;53.594;10.034;2024-02-16T06:32:18;101062.06;;;11.56
55038;BMP280;40937;53.594;10.034;2024-02-16T06:34:45;101064.91;;;11.54
55038;BMP280;40937;53.594;10.034;2024-02-16T06:37:12;101071.25;;;11.53
55038;BMP280;40937;53.594;10.034;2024-02-16T06:39:40;101073.31;;;11.51
55038;BMP280;40937;53.594;10.034;2024-02-16T06:42:10;101078.34;;;11.52
55038;BMP280;40937;53.594;10.034;2024-02-16T06:44:38;101079.19;;;11.53
55038;BMP280;40937;53.594;10.034;2024-02-16T06:47:05;101086.53;;;11.51
55038;BMP280;40937;53.594;10.034;2024-02-16T06:49:32;101091.81;;;11.51
55038;BMP280;40937;53.594;10.034;2024-02-16T06:52:00;101081.69;;;11.48
55038;BMP280;40937;53.594;10.034;2024-02-16T06:54:27;101081.69;;;11.48
55038;BMP280;40937;53.594;10.034;2024-02-16T06:56:55;101085.50;;;11.52
55038;BMP280;40937;53.594;10.034;2024-02-16T06:59:23;101082.28;;;11.50
55038;BMP280;40937;53.594;10.034;2024-02-16T07:01:51;101084.94;;;11.50
55038;BMP280;40937;53.594;10.034;2024-02-16T07:04:19;101076.53;;;11.53
55038;BMP280;40937;53.594;10.034;2024-02-16T07:06:46;101077.59;;;11.52
55038;BMP280;40937;53.594;10.034;2024-02-16T07:09:13;101082.28;;;11.50
55038;BMP280;40937;53.594;10.034;2024-02-16T07:11:41;101083.31;;;11.49
55038;BMP280;40937;53.594;10.034;2024-02-16T07:14:12;101095.13;;;11.46
55038;BMP280;40937;53.594;10.034;2024-02-16T07:16:40;101092.25;;;11.48
55038;BMP280;40937;53.594;10.034;2024-02-16T07:19:07;101095.94;;;11.47
55038;BMP280;40937;53.594;10.034;2024-02-16T07:21:35;101096.44;;;11.44
55038;BMP280;40937;53.594;10.034;2024-02-16T07:24:02;101098.81;;;11.45
55038;BMP280;40937;53.594;10.034;2024-02-16T07:26:29;101110.19;;;11.46
55038;BMP280;40937;53.594;10.034;2024-02-16T07:28:57;101104.44;;;11.49
55038;BMP280;40937;53.594;10.034;2024-02-16T07:31:24;101096.31;;;11.50
55038;BMP280;40937;53.594;10.034;2024-02-16T07:33:52;101097.94;;;11.52
55038;BMP280;40937;53.594;10.034;2024-02-16T07:36:19;101101.59;;;11.50
55038;BMP280;40937;53.594;10.034;2024-02-16T07:38:47;101101.59;;;11.50
55038;BMP280;40937;53.594;10.034;2024-02-16T07:41:14;101096.63;;;11.54
55038;BMP280;40937;53.594;10.034;2024-02-16T07:43:41;101092.16;;;11.55
55038;BMP280;40937;53.594;10.034;2024-02-16T07:46:08;101091.94;;;11.56
55038;BMP280;40937;53.594;10.034;2024-02-16T07:48:35;101096.97;;;11.58
55038;BMP280;40937;53.594;10.034;2024-02-16T07:51:04;101104.69;;;11.59
55038;BMP280;40937;53.594;10.034;2024-02-16T07:53:31;101111.59;;;11.60
55038;BMP280;40937;53.594;10.034;2024-02-16T07:55:59;101108.94;;;11.60
55038;BMP280;40937;53.594;10.034;2024-02-16T07:58:26;101100.53;;;11.63
55038;BMP280;40937;53.594;10.034;2024-02-16T08:00:53;101112.97;;;11.63
55038;BMP280;40937;53.594;10.034;2024-02-16T08:03:21;101113.53;;;11.65
55038;BMP280;40937;53.594;10.034;2024-02-16T08:05:48;101102.47;;;11.68
55038;BMP280;40937;53.594;10.034;2024-02-16T08:08:17;101105.94;;;11.68
55038;BMP280;40937;53.594;10.034;2024-02-16T08:10:44;101100.41;;;11.70
55038;BMP280;40937;53.594;10.034;2024-02-16T08:13:19;101096.75;;;11.71
55038;BMP280;40937;53.594;10.034;2024-02-16T08:15:49;101097.56;;;11.71
55038;BMP280;40937;53.594;10.034;2024-02-16T08:18:20;101093.41;;;11.76
55038;BMP280;40937;53.594;10.034;2024-02-16T08:20:47;101083.63;;;11.76
55038;BMP280;40937;53.594;10.034;2024-02-16T08:23:16;101080.31;;;11.81
55038;BMP280;40937;53.594;10.034;2024-02-16T08:25:49;101076.41;;;11.83
55038;BMP280;40937;53.594;10.034;2024-02-16T08:28:16;101075.72;;;11.88
55038;BMP280;40937;53.594;10.034;2024-02-16T08:30:44;101071.44;;;11.87
55038;BMP280;40937;53.594;10.034;2024-02-16T08:33:12;101065.16;;;11.88
55038;BMP280;40937;53.594;10.034;2024-02-16T08:35:39;101071.56;;;11.92
55038;BMP280;40937;53.594;10.034;2024-02-16T08:38:06;101073.16;;;11.93
55038;BMP280;40937;53.594;10.034;2024-02-16T08:40:36;101069.94;;;11.91
55038;BMP280;40937;53.594;10.034;2024-02-16T08:43:03;101074.44;;;11.90
55038;BMP280;40937;53.594;10.034;2024-02-16T08:45:31;101085.38;;;11.94
55038;BMP280;40937;53.594;10.034;2024-02-16T08:47:59;101086.50;;;11.98
55038;BMP280;40937;53.594;10.034;2024-02-16T08:50:29;101083.41;;;12.01
55038;BMP280;40937;53.594;10.034;2024-02-16T08:52:56;101074.66;;;12.01
55038;BMP280;40937;53.594;10.034;2024-02-16T08:55:23;101080.06;;;11.94
55038;BMP280;40937;53.594;10.034;2024-02-16T08:57:51;101073.53;;;11.97
55038;BMP280;40937;53.594;10.034;2024-02-16T09:00:19;101074.34;;;11.97
55038;BMP280;40937;53.594;10.034;2024-02-16T09:02:46;101073.84;;;12.00
55038;BMP280;40937;53.594;10.034;2024-02-16T09:05:15;101073.84;;;12.00
55038;BMP280;40937;53.594;10.034;2024-02-16T09:07:42;101079.50;;;12.04
55038;BMP280;40937;53.594;10.034;2024-02-16T09:10:09;101075.03;;;12.04
55038;BMP280;40937;53.594;10.034;2024-02-16T09:12:37;101073.94;;;12.05
55038;BMP280;40937;53.594;10.034;2024-02-16T09:15:05;101075.47;;;12.01
55038;BMP280;40937;53.594;10.034;2024-02-16T09:17:32;101069.75;;;12.04
55038;BMP280;40937;53.594;10.034;2024-02-16T09:20:00;101071.66;;;12.09
55038;BMP280;40937;53.594;10.034;2024-02-16T09:22:31;101073.25;;;12.10
55038;BMP280;40937;53.594;10.034;2024-02-16T09:24:58;101074.63;;;12.13
55038;BMP280;40937;53.594;10.034;2024-02-16T09:27:27;101071.97;;;12.13
55038;BMP280;40937;53.594;10.034;2024-02-16T09:29:54;101067.19;;;12.09
55038;BMP280;40937;53.594;10.034;2024-02-16T09:32:22;101060.84;;;12.10
55038;BMP280;40937;53.594;10.034;2024-02-16T09:34:49;101061.41;;;12.13
55038;BMP280;40937;53.594;10.034;2024-02-16T09:37:16;101065.09;;;12.12
55038;BMP280;40937;53.594;10.034;2024-02-16T09:39:45;101061.75;;;12.16
55038;BMP280;40937;53.594;10.034;2024-02-16T09:42:12;101064.16;;;12.18
55038;BMP280;40937;53.594;10.034;2024-02-16T09:44:41;101068.66;;;12.17
55038;BMP280;40937;53.594;10.034;2024-02-16T09:47:09;101073.47;;;12.20
55038;BMP280;40937;53.594;10.034;2024-02-16T09:49:38;101075.06;;;12.21
55038;BMP280;40937;53.594;10.034;2024-02-16T09:52:09;101062.66;;;12.22
55038;BMP280;40937;53.594;10.034;2024-02-16T09:54:38;101072.19;;;12.23
55038;BMP280;40937;53.594;10.034;2024-02-16T09:57:07;101079.09;;;12.24
55038;BMP280;40937;53.594;10.034;2024-02-16T09:59:34;101077.00;;;12.26
55038;BMP280;40937;53.594;10.034;2024-02-16T10:02:02;101070.44;;;12.28
55038;BMP280;40937;53.594;10.034;2024-02-16T10:04:29;101068.13;;;12.32
55038;BMP280;40937;53.594;10.034;2024-02-16T10:06:57;101078.22;;;12.35
55038;BMP280;40937;53.594;10.034;2024-02-16T10:09:25;101071.91;;;12.36
55038;BMP280;40937;53.594;10.034;2024-02-16T10:11:52;101063.75;;;12.38
55038;BMP280;40937;53.594;10.034;2024-02-16T10:14:21;101070.88;;;12.37
55038;BMP280;40937;53.594;10.034;2024-02-16T10:16:58;101079.94;;;12.41
55038;BMP280;40937;53.594;10.034;2024-02-16T10:19:25;101078.44;;;12.45
55038;BMP280;40937;53.594;10.034;2024-02-16T10:21:53;101079.00;;;12.47
55038;BMP280;40937;53.594;10.034;2024-02-16T10:24:21;101084.97;;;12.55
55038;BMP280;40937;53.594;10.034;2024-02-16T10:26:48;101081.38;;;12.61
55038;BMP280;40937;53.594;10.034;2024-02-16T10:29:18;101083.53;;;12.64
55038;BMP280;40937;53.594;10.034;2024-02-16T10:31:47;101079.38;;;12.68
55038;BMP280;40937;53.594;10.034;2024-02-16T10:34:15;101085.81;;;12.72
55038;BMP280;40937;53.594;10.034;2024-02-16T10:36:43;101085.66;;;12.79
55038;BMP280;40937;53.594;10.034;2024-02-16T10:39:10;101087.81;;;12.82
55038;BMP280;40937;53.594;10.034;2024-02-16T10:41:41;101087.94;;;12.87
55038;BMP280;40937;53.594;10.034;2024-02-16T10:44:08;101089.03;;;12.91
55038;BMP280;40937;53.594;10.034;2024-02-16T10:46:36;101092.03;;;12.95
55038;BMP280;40937;53.594;10.034;2024-02-16T10:49:05;101086.81;;;13.00
55038;BMP280;40937;53.594;10.034;2024-02-16T10:51:35;101085.84;;;13.06
55038;BMP280;40937;53.594;10.034;2024-02-16T10:54:05;101095.47;;;13.12
55038;BMP280;40937;53.594;10.034;2024-02-16T10:56:33;101096.03;;;13.14
55038;BMP280;40937;53.594;10.034;2024-02-16T10:59:04;101090.81;;;13.19
55038;BMP280;40937;53.594;10.034;2024-02-16T11:01:37;101086.66;;;13.23
55038;BMP280;40937;53.594;10.034;2024-02-16T11:04:07;101085.94;;;13.28
55038;BMP280;40937;53.594;10.034;2024-02-16T11:06:48;101082.53;;;13.33
55038;BMP280;40937;53.594;10.034;2024-02-16T11:09:27;101080.53;;;13.40
55038;BMP280;40937;53.594;10.034;2024-02-16T11:11:59;101082.47;;;13.44
55038;BMP280;40937;53.594;10.034;2024-02-16T11:14:34;101079.09;;;13.49
55038;BMP280;40937;53.594;10.034;2024-02-16T11:17:02;101075.13;;;13.51
55038;BMP280;40937;53.594;10.034;2024-02-16T11:19:35;101076.56;;;13.59
55038;BMP280;40937;53.594;10.034;2024-02-16T11:22:03;101076.66;;;13.64
55038;BMP280;40937;53.594;10.034;2024-02-16T11:24:33;101075.63;;;13.70
55038;BMP280;40937;53.594;10.034;2024-02-16T11:27:01;101076.28;;;13.78
55038;BMP280;40937;53.594;10.034;2024-02-16T11:29:31;101071.28;;;13.81
55038;BMP280;40937;53.594;10.034;2024-02-16T11:31:59;101073.19;;;13.86
55038;BMP280;40937;53.594;10.034;2024-02-16T11:34:27;101070.84;;;13.89
55038;BMP280;40937;53.594;10.034;2024-02-16T11:36:56;101069.00;;;13.90
55038;BMP280;40937;53.594;10.034;2024-02-16T11:39:24;101071.22;;;13.98
55038;BMP280;40937;53.594;10.034;2024-02-16T11:42:01;101065.16;;;14.03
55038;BMP280;40937;53.594;10.034;2024-02-16T11:44:29;101071.84;;;14.05
55038;BMP280;40937;53.594;10.034;2024-02-16T11:46:58;101072.97;;;14.09
55038;BMP280;40937;53.594;10.034;2024-02-16T11:49:25;101070.06;;;14.11
55038;BMP280;40937;53.594;10.034;2024-02-16T11:51:52;101079.69;;;14.17
55038;BMP280;40937;53.594;10.034;2024-02-16T11:54:21;101074.13;;;14.19
55038;BMP280;40937;53.594;10.034;2024-02-16T11:56:48;101074.13;;;14.19
55038;BMP280;40937;53.594;10.034;2024-02-16T11:59:17;101074.66;;;14.21
55038;BMP280;40937;53.594;10.034;2024-02-16T12:01:52;101078.91;;;14.22
55038;BMP280;40937;53.594;10.034;2024-02-16T12:04:21;101077.38;;;14.26
55038;BMP280;40937;53.594;10.034;2024-02-16T12:06:51;101077.66;;;14.29
55038;BMP280;40937;53.594;10.034;2024-02-16T12:09:18;101075.59;;;14.31
55038;BMP280;40937;53.594;10.034;2024-02-16T12:11:48;101073.47;;;14.34
55038;BMP280;40937;53.594;10.034;2024-02-16T12:14:16;101065.25;;;14.35
55038;BMP280;40937;53.594;10.034;2024-02-16T12:16:47;101071.66;;;14.39
55038;BMP280;40937;53.594;10.034;2024-02-16T12:19:15;101068.47;;;14.37
55038;BMP280;40937;53.594;10.034;2024-02-16T12:21:42;101064.25;;;14.41
55038;BMP280;40937;53.594;10.034;2024-02-16T12:24:09;101068.53;;;14.42
55038;BMP280;40937;53.594;10.034;2024-02-16T12:26:37;101068.56;;;14.47
55038;BMP280;40937;53.594;10.034;2024-02-16T12:29:06;101067.78;;;14.47
55038;BMP280;40937;53.594;10.034;2024-02-16T12:31:34;101067.00;;;14.51
55038;BMP280;40937;53.594;10.034;2024-02-16T12:34:03;101074.97;;;14.51
55038;BMP280;40937;53.594;10.034;2024-02-16T12:36:32;101081.09;;;14.52
55038;BMP280;40937;53.594;10.034;2024-02-16T12:39:00;101084.53;;;14.52
55038;BMP280;40937;53.594;10.034;2024-02-16T12:41:28;101076.06;;;14.56
55038;BMP280;40937;53.594;10.034;2024-02-16T12:43:55;101071.25;;;14.52
55038;BMP280;40937;53.594;10.034;2024-02-16T12:46:24;101084.09;;;14.61
55038;BMP280;40937;53.594;10.034;2024-02-16T12:48:51;101080.94;;;14.64
55038;BMP280;40937;53.594;10.034;2024-02-16T12:51:19;101097.41;;;14.66
55038;BMP280;40937;53.594;10.034;2024-02-16T12:53:46;101098.22;;;14.66
55038;BMP280;40937;53.594;10.034;2024-02-16T12:56:14;101092.13;;;14.71
55038;BMP280;40937;53.594;10.034;2024-02-16T12:58:41;101092.09;;;14.66
55038;BMP280;40937;53.594;10.034;2024-02-16T13:01:08;101088.91;;;14.64
55038;BMP280;40937;53.594;10.034;2024-02-16T13:03:38;101101.09;;;14.65
55038;BMP280;40937;53.594;10.034;2024-02-16T13:06:06;101088.41;;;14.67
55038;BMP280;40937;53.594;10.034;2024-02-16T13:08:33;101093.72;;;14.67
55038;BMP280;40937;53.594;10.034;2024-02-16T13:11:02;101098.69;;;14.63
55038;BMP280;40937;53.594;10.034;2024-02-16T13:13:30;101102.72;;;14.66
55038;BMP280;40937;53.594;10.034;2024-02-16T13:15:57;101090.47;;;14.65
55038;BMP280;40937;53.594;10.034;2024-02-16T13:18:25;101095.31;;;14.68
55038;BMP280;40937;53.594;10.034;2024-02-16T13:20:53;101100.09;;;14.71
55038;BMP280;40937;53.594;10.034;2024-02-16T13:23:21;101101.72;;;14.72
55038;BMP280;40937;53.594;10.034;2024-02-16T13:25:48;101105.38;;;14.66
55038;BMP280;40937;53.594;10.034;2024-02-16T13:28:15;101097.69;;;14.69
55038;BMP280;40937;53.594;10.034;2024-02-16T13:30:43;101090.81;;;14.68
55038;BMP280;40937;53.594;10.034;2024-02-16T13:33:10;101097.97;;;14.68
55038;BMP280;40937;53.594;10.034;2024-02-16T13:35:37;101093.47;;;14.68
55038;BMP280;40937;53.594;10.034;2024-02-16T13:38:06;101105.94;;;14.68
55038;BMP280;40937;53.594;10.034;2024-02-16T13:40:34;101100.09;;;14.71
55038;BMP280;40937;53.594;10.034;2024-02-16T13:43:01;101107.56;;;14.69
55038;BMP280;40937;53.594;10.034;2024-02-16T13:45:30;101107.56;;;14.69
55038;BMP280;40937;53.594;10.034;2024-02-16T13:48:12;101104.34;;;14.67
55038;BMP280;40937;53.594;10.034;2024-02-16T13:50:40;101108.03;;;14.66